sensor_id;sensor_type;location;lat;lon;timestamp;temperature;humidity
46117;DHT22;32591;48.102;11.772;2022-10-22T00:01:06;14.60;99.90
46117;DHT22;32591;48.102;11.772;2022-10-22T00:03:33;14.50;99.90
46117;DHT22;32591;48.102;11.772;2022-10-22T00:06:00;14.50;99.90
46117;DHT22;32591;48.102;11.772;2022-10-22T00:08:27;14.50;99.90
46117;DHT22;32591;48.102;11.772;2022-10-22T00:10:54;14.50;99.90
46117;DHT22;32591;48.102;11.772;2022-10-22T00:13:22;14.50;99.90
46117;DHT22;32591;48.102;11.772;2022-10-22T00:15:49;14.60;99.90
46117;DHT22;32591;48.102;11.772;2022-10-22T00:18:17;14.60;99.90
46117;DHT22;32591;48.102;11.772;2022-10-22T00:20:44;14.60;99.90
46117;DHT22;32591;48.102;11.772;2022-10-22T00:23:11;14.60;99.90
46117;DHT22;32591;48.102;11.772;2022-10-22T00:25:38;14.60;99.90
46117;DHT22;32591;48.102;11.772;2022-10-22T00:28:05;14.60;99.90
46117;DHT22;32591;48.102;11.772;2022-10-22T00:30:32;14.60;99.90
46117;DHT22;32591;48.102;11.772;2022-10-22T00:32:59;14.50;99.90
46117;DHT22;32591;48.102;11.772;2022-10-22T00:35:27;14.50;99.90
46117;DHT22;32591;48.102;11.772;2022-10-22T00:37:54;14.50;99.90
46117;DHT22;32591;48.102;11.772;2022-10-22T00:40:21;14.50;99.90
46117;DHT22;32591;48.102;11.772;2022-10-22T00:42:48;14.50;99.90
46117;DHT22;32591;48.102;11.772;2022-10-22T00:45:20;14.50;99.90
46117;DHT22;32591;48.102;11.772;2022-10-22T00:47:52;14.50;99.90
46117;DHT22;32591;48.102;11.772;2022-10-22T00:50:25;14.50;99.90
46117;DHT22;32591;48.102;11.772;2022-10-22T00:52:56;14.40;99.90
46117;DHT22;32591;48.102;11.772;2022-10-22T00:55:25;14.30;99.90
46117;DHT22;32591;48.102;11.772;2022-10-22T00:57:54;14.30;99.90
46117;DHT22;32591;48.102;11.772;2022-10-22T01:00:22;14.20;99.90
46117;DHT22;32591;48.102;11.772;2022-10-22T01:02:50;14.20;99.90
46117;DHT22;32591;48.102;11.772;2022-10-22T01:05:18;14.20;99.90
46117;DHT22;32591;48.102;11.772;2022-10-22T01:07:49;14.10;99.90
46117;DHT22;32591;48.102;11.772;2022-10-22T01:10:27;13.90;99.90
46117;DHT22;32591;48.102;11.772;2022-10-22T01:13:13;13.80;99.90
46117;DHT22;32591;48.102;11.772;2022-10-22T01:15:49;13.80;99.90
46117;DHT22;32591;48.102;11.772;2022-10-22T01:18:23;13.70;99.90
46117;DHT22;32591;48.102;11.772;2022-10-22T01:21:06;13.70;99.90
46117;DHT22;32591;48.102;11.772;2022-10-22T01:24:01;13.70;99.90
46117;DHT22;32591;48.102;11.772;2022-10-22T01:26:50;13.70;99.90
46117;DHT22;32591;48.102;11.772;2022-10-22T01:29:26;13.70;99.90
46117;DHT22;32591;48.102;11.772;2022-10-22T01:31:58;13.70;99.90
46117;DHT22;32591;48.102;11.772;2022-10-22T01:34:28;13.70;99.90
46117;DHT22;32591;48.102;11.772;2022-10-22T01:36:56;13.70;99.90
46117;DHT22;32591;48.102;11.772;2022-10-22T01:39:26;13.70;99.90
46117;DHT22;32591;48.102;11.772;2022-10-22T01:41:55;13.80;99.90
46117;DHT22;32591;48.102;11.772;2022-10-22T01:44:28;13.80;99.90
46117;DHT22;32591;48.102;11.772;2022-10-22T01:47:04;13.70;99.90
46117;DHT22;32591;48.102;11.772;2022-10-22T01:50:03;13.70;99.90
46117;DHT22;32591;48.102;11.772;2022-10-22T01:52:50;13.70;99.90
46117;DHT22;32591;48.102;11.772;2022-10-22T01:55:27;13.80;99.90
46117;DHT22;32591;48.102;11.772;2022-10-22T01:58:05;13.70;99.90
46117;DHT22;32591;48.102;11.772;2022-10-22T02:00:46;13.70;99.90
46117;DHT22;32591;48.102;11.772;2022-10-22T02:03:22;13.80;99.90
46117;DHT22;32591;48.102;11.772;2022-10-22T02:05:54;13.70;99.90
46117;DHT22;32591;48.102;11.772;2022-10-22T02:08:26;13.80;99.90
46117;DHT22;32591;48.102;11.772;2022-10-22T02:10:55;13.80;99.90
46117;DHT22;32591;48.102;11.772;2022-10-22T02:13:26;13.80;99.90
46117;DHT22;32591;48.102;11.772;2022-10-22T02:15:57;13.90;99.90
46117;DHT22;32591;48.102;11.772;2022-10-22T02:18:29;13.80;99.90
46117;DHT22;32591;48.102;11.772;2022-10-22T02:20:58;13.70;99.90
46117;DHT22;32591;48.102;11.772;2022-10-22T02:23:26;13.70;99.90
46117;DHT22;32591;48.102;11.772;2022-10-22T02:26:00;13.70;99.90
46117;DHT22;32591;48.102;11.772;2022-10-22T02:28:36;13.70;99.90
46117;DHT22;32591;48.102;11.772;2022-10-22T02:31:12;13.70;99.90
46117;DHT22;32591;48.102;11.772;2022-10-22T02:33:43;13.70;99.90
46117;DHT22;32591;48.102;11.772;2022-10-22T02:36:12;13.70;99.90
46117;DHT22;32591;48.102;11.772;2022-10-22T02:38:41;13.70;99.90
46117;DHT22;32591;48.102;11.772;2022-10-22T02:41:08;13.70;99.90
46117;DHT22;32591;48.102;11.772;2022-10-22T02:43:41;13.70;99.90
46117;DHT22;32591;48.102;11.772;2022-10-22T02:46:10;13.70;99.90
46117;DHT22;32591;48.102;11.772;2022-10-22T02:48:37;13.60;99.90
46117;DHT22;32591;48.102;11.772;2022-10-22T02:51:05;13.60;99.90
46117;DHT22;32591;48.102;11.772;2022-10-22T02:53:31;13.70;99.90
46117;DHT22;32591;48.102;11.772;2022-10-22T02:55:58;13.70;99.90
46117;DHT22;32591;48.102;11.772;2022-10-22T02:58:25;13.70;99.90
46117;DHT22;32591;48.102;11.772;2022-10-22T03:00:53;13.70;99.90
46117;DHT22;32591;48.102;11.772;2022-10-22T03:03:21;13.60;99.90
46117;DHT22;32591;48.102;11.772;2022-10-22T03:05:49;13.70;99.90
46117;DHT22;32591;48.102;11.772;2022-10-22T03:08:17;13.60;99.90
46117;DHT22;32591;48.102;11.772;2022-10-22T03:10:44;13.70;99.90
46117;DHT22;32591;48.102;11.772;2022-10-22T03:13:11;13.70;99.90
46117;DHT22;32591;48.102;11.772;2022-10-22T03:15:38;13.70;99.90
46117;DHT22;32591;48.102;11.772;2022-10-22T03:18:05;13.80;99.90
46117;DHT22;32591;48.102;11.772;2022-10-22T03:20:33;13.80;99.90
46117;DHT22;32591;48.102;11.772;2022-10-22T03:23:00;13.80;99.90
46117;DHT22;32591;48.102;11.772;2022-10-22T03:25:28;13.80;99.90
46117;DHT22;32591;48.102;11.772;2022-10-22T03:28:01;13.90;99.90
46117;DHT22;32591;48.102;11.772;2022-10-22T03:30:30;13.90;99.90
46117;DHT22;32591;48.102;11.772;2022-10-22T03:32:57;13.90;99.90
46117;DHT22;32591;48.102;11.772;2022-10-22T03:35:25;13.90;99.90
46117;DHT22;32591;48.102;11.772;2022-10-22T03:37:53;13.90;99.90
46117;DHT22;32591;48.102;11.772;2022-10-22T03:40:21;13.90;99.90
46117;DHT22;32591;48.102;11.772;2022-10-22T03:42:48;13.90;99.90
46117;DHT22;32591;48.102;11.772;2022-10-22T03:45:15;13.80;99.90
46117;DHT22;32591;48.102;11.772;2022-10-22T03:47:42;13.80;99.90
46117;DHT22;32591;48.102;11.772;2022-10-22T03:50:09;13.80;99.90
46117;DHT22;32591;48.102;11.772;2022-10-22T03:52:38;13.80;99.90
46117;DHT22;32591;48.102;11.772;2022-10-22T03:55:09;13.80;99.90
46117;DHT22;32591;48.102;11.772;2022-10-22T03:57:36;13.80;99.90
46117;DHT22;32591;48.102;11.772;2022-10-22T04:00:04;13.70;99.90
46117;DHT22;32591;48.102;11.772;2022-10-22T04:02:32;13.70;99.90
46117;DHT22;32591;48.102;11.772;2022-10-22T04:05:01;13.60;99.90
46117;DHT22;32591;48.102;11.772;2022-10-22T04:07:28;13.60;99.90
46117;DHT22;32591;48.102;11.772;2022-10-22T04:09:55;13.50;99.90
46117;DHT22;32591;48.102;11.772;2022-10-22T04:12:24;13.60;99.90
46117;DHT22;32591;48.102;11.772;2022-10-22T04:14:51;13.50;99.90
46117;DHT22;32591;48.102;11.772;2022-10-22T04:17:18;13.50;99.90
46117;DHT22;32591;48.102;11.772;2022-10-22T04:19:45;13.40;99.90
46117;DHT22;32591;48.102;11.772;2022-10-22T04:22:12;13.40;99.90
46117;DHT22;32591;48.102;11.772;2022-10-22T04:24:39;13.30;99.90
46117;DHT22;32591;48.102;11.772;2022-10-22T04:27:06;13.30;99.90
46117;DHT22;32591;48.102;11.772;2022-10-22T04:29:35;13.30;99.90
46117;DHT22;32591;48.102;11.772;2022-10-22T04:32:02;13.20;99.90
46117;DHT22;32591;48.102;11.772;2022-10-22T04:34:29;13.20;99.90
46117;DHT22;32591;48.102;11.772;2022-10-22T04:36:57;13.10;99.90
46117;DHT22;32591;48.102;11.772;2022-10-22T04:39:23;13.10;99.90
46117;DHT22;32591;48.102;11.772;2022-10-22T04:41:50;13.00;99.90
46117;DHT22;32591;48.102;11.772;2022-10-22T04:44:17;12.90;99.90
46117;DHT22;32591;48.102;11.772;2022-10-22T04:46:46;12.90;99.90
46117;DHT22;32591;48.102;11.772;2022-10-22T04:49:13;13.00;99.90
46117;DHT22;32591;48.102;11.772;2022-10-22T04:51:40;12.90;99.90
46117;DHT22;32591;48.102;11.772;2022-10-22T04:54:07;12.90;99.90
46117;DHT22;32591;48.102;11.772;2022-10-22T04:56:34;12.90;99.90
46117;DHT22;32591;48.102;11.772;2022-10-22T04:59:03;12.90;99.90
46117;DHT22;32591;48.102;11.772;2022-10-22T05:01:32;12.80;99.90
46117;DHT22;32591;48.102;11.772;2022-10-22T05:04:03;12.90;99.90
46117;DHT22;32591;48.102;11.772;2022-10-22T05:06:32;12.80;99.90
46117;DHT22;32591;48.102;11.772;2022-10-22T05:09:03;12.70;99.90
46117;DHT22;32591;48.102;11.772;2022-10-22T05:11:33;12.70;99.90
46117;DHT22;32591;48.102;11.772;2022-10-22T05:14:04;12.70;99.90
46117;DHT22;32591;48.102;11.772;2022-10-22T05:16:33;12.80;99.90
46117;DHT22;32591;48.102;11.772;2022-10-22T05:19:02;12.80;99.90
46117;DHT22;32591;48.102;11.772;2022-10-22T05:21:30;12.70;99.90
46117;DHT22;32591;48.102;11.772;2022-10-22T05:23:57;12.70;99.90
46117;DHT22;32591;48.102;11.772;2022-10-22T05:26:26;12.80;99.90
46117;DHT22;32591;48.102;11.772;2022-10-22T05:28:54;12.70;99.90
46117;DHT22;32591;48.102;11.772;2022-10-22T05:31:22;12.70;99.90
46117;DHT22;32591;48.102;11.772;2022-10-22T05:33:49;12.70;99.90
46117;DHT22;32591;48.102;11.772;2022-10-22T05:36:19;12.60;99.90
46117;DHT22;32591;48.102;11.772;2022-10-22T05:38:47;12.60;99.90
46117;DHT22;32591;48.102;11.772;2022-10-22T05:41:17;12.70;99.90
46117;DHT22;32591;48.102;11.772;2022-10-22T05:43:46;12.80;99.90
46117;DHT22;32591;48.102;11.772;2022-10-22T05:46:15;12.60;99.90
46117;DHT22;32591;48.102;11.772;2022-10-22T05:48:43;12.60;99.90
46117;DHT22;32591;48.102;11.772;2022-10-22T05:51:11;12.70;99.90
46117;DHT22;32591;48.102;11.772;2022-10-22T05:53:41;12.70;99.90
46117;DHT22;32591;48.102;11.772;2022-10-22T05:56:10;12.60;99.90
46117;DHT22;32591;48.102;11.772;2022-10-22T05:58:39;12.60;99.90
46117;DHT22;32591;48.102;11.772;2022-10-22T06:01:09;12.70;99.90
46117;DHT22;32591;48.102;11.772;2022-10-22T06:03:37;12.70;99.90
46117;DHT22;32591;48.102;11.772;2022-10-22T06:06:12;12.70;99.90
46117;DHT22;32591;48.102;11.772;2022-10-22T06:08:44;12.70;99.90
46117;DHT22;32591;48.102;11.772;2022-10-22T06:11:12;12.70;99.90
46117;DHT22;32591;48.102;11.772;2022-10-22T06:13:39;12.60;99.90
46117;DHT22;32591;48.102;11.772;2022-10-22T06:16:06;12.60;99.90
46117;DHT22;32591;48.102;11.772;2022-10-22T06:18:33;12.70;99.90
46117;DHT22;32591;48.102;11.772;2022-10-22T06:21:04;12.70;99.90
46117;DHT22;32591;48.102;11.772;2022-10-22T06:23:31;12.80;99.90
46117;DHT22;32591;48.102;11.772;2022-10-22T06:26:00;12.80;99.90
46117;DHT22;32591;48.102;11.772;2022-10-22T06:28:27;12.80;99.90
46117;DHT22;32591;48.102;11.772;2022-10-22T06:30:56;12.80;99.90
46117;DHT22;32591;48.102;11.772;2022-10-22T06:33:23;12.90;99.90
46117;DHT22;32591;48.102;11.772;2022-10-22T06:35:50;12.90;99.90
46117;DHT22;32591;48.102;11.772;2022-10-22T06:38:17;12.90;99.90
46117;DHT22;32591;48.102;11.772;2022-10-22T06:40:44;12.90;99.90
46117;DHT22;32591;48.102;11.772;2022-10-22T06:43:13;13.00;99.90
46117;DHT22;32591;48.102;11.772;2022-10-22T06:45:40;13.00;99.90
46117;DHT22;32591;48.102;11.772;2022-10-22T06:48:07;13.00;99.90
46117;DHT22;32591;48.102;11.772;2022-10-22T06:50:34;13.00;99.90
46117;DHT22;32591;48.102;11.772;2022-10-22T06:53:01;13.00;99.90
46117;DHT22;32591;48.102;11.772;2022-10-22T06:55:28;12.90;99.90
46117;DHT22;32591;48.102;11.772;2022-10-22T06:57:55;12.90;99.90
46117;DHT22;32591;48.102;11.772;2022-10-22T07:00:24;12.90;99.90
46117;DHT22;32591;48.102;11.772;2022-10-22T07:02:51;12.90;99.90
46117;DHT22;32591;48.102;11.772;2022-10-22T07:05:19;12.90;99.90
46117;DHT22;32591;48.102;11.772;2022-10-22T07:07:46;12.80;99.90
46117;DHT22;32591;48.102;11.772;2022-10-22T07:10:13;12.80;99.90
46117;DHT22;32591;48.102;11.772;2022-10-22T07:12:40;12.80;99.90
46117;DHT22;32591;48.102;11.772;2022-10-22T07:15:07;12.80;99.90
46117;DHT22;32591;48.102;11.772;2022-10-22T07:17:36;12.80;99.90
46117;DHT22;32591;48.102;11.772;2022-10-22T07:20:04;12.90;99.90
46117;DHT22;32591;48.102;11.772;2022-10-22T07:22:32;12.90;99.90
46117;DHT22;32591;48.102;11.772;2022-10-22T07:24:59;12.90;99.90
46117;DHT22;32591;48.102;11.772;2022-10-22T07:27:26;13.00;99.90
46117;DHT22;32591;48.102;11.772;2022-10-22T07:29:53;13.00;99.90
46117;DHT22;32591;48.102;11.772;2022-10-22T07:32:20;13.10;99.90
46117;DHT22;32591;48.102;11.772;2022-10-22T07:34:49;13.20;99.90
46117;DHT22;32591;48.102;11.772;2022-10-22T07:37:16;13.20;99.90
46117;DHT22;32591;48.102;11.772;2022-10-22T07:39:46;13.20;99.90
46117;DHT22;32591;48.102;11.772;2022-10-22T07:42:13;13.10;99.90
46117;DHT22;32591;48.102;11.772;2022-10-22T07:44:40;13.10;99.90
46117;DHT22;32591;48.102;11.772;2022-10-22T07:47:07;13.20;99.90
46117;DHT22;32591;48.102;11.772;2022-10-22T07:49:35;13.30;99.90
46117;DHT22;32591;48.102;11.772;2022-10-22T07:52:03;13.30;99.90
46117;DHT22;32591;48.102;11.772;2022-10-22T07:54:32;13.40;99.90
46117;DHT22;32591;48.102;11.772;2022-10-22T07:56:59;13.50;99.90
46117;DHT22;32591;48.102;11.772;2022-10-22T07:59:26;13.50;99.90
46117;DHT22;32591;48.102;11.772;2022-10-22T08:01:53;13.60;99.90
46117;DHT22;32591;48.102;11.772;2022-10-22T08:04:20;13.60;99.90
46117;DHT22;32591;48.102;11.772;2022-10-22T08:06:47;13.70;99.90
46117;DHT22;32591;48.102;11.772;2022-10-22T08:09:15;13.70;99.90
46117;DHT22;32591;48.102;11.772;2022-10-22T08:11:42;13.70;99.90
46117;DHT22;32591;48.102;11.772;2022-10-22T08:14:10;13.70;99.90
46117;DHT22;32591;48.102;11.772;2022-10-22T08:16:37;13.80;99.90
46117;DHT22;32591;48.102;11.772;2022-10-22T08:19:04;13.80;99.90
46117;DHT22;32591;48.102;11.772;2022-10-22T08:21:31;13.90;99.90
46117;DHT22;32591;48.102;11.772;2022-10-22T08:23:58;13.90;99.90
46117;DHT22;32591;48.102;11.772;2022-10-22T08:26:26;13.90;99.90
46117;DHT22;32591;48.102;11.772;2022-10-22T08:28:53;13.90;99.90
46117;DHT22;32591;48.102;11.772;2022-10-22T08:31:20;13.90;99.90
46117;DHT22;32591;48.102;11.772;2022-10-22T08:33:48;13.90;99.90
46117;DHT22;32591;48.102;11.772;2022-10-22T08:36:15;13.80;99.90
46117;DHT22;32591;48.102;11.772;2022-10-22T08:38:42;13.80;99.90
46117;DHT22;32591;48.102;11.772;2022-10-22T08:41:11;13.80;99.90
46117;DHT22;32591;48.102;11.772;2022-10-22T08:47:35;13.80;99.90
46117;DHT22;32591;48.102;11.772;2022-10-22T08:50:22;13.90;99.90
46117;DHT22;32591;48.102;11.772;2022-10-22T08:52:54;13.90;99.90
46117;DHT22;32591;48.102;11.772;2022-10-22T08:55:23;14.00;99.90
46117;DHT22;32591;48.102;11.772;2022-10-22T08:57:59;14.00;99.90
46117;DHT22;32591;48.102;11.772;2022-10-22T09:00:34;14.10;99.90
46117;DHT22;32591;48.102;11.772;2022-10-22T09:03:18;14.20;99.90
46117;DHT22;32591;48.102;11.772;2022-10-22T09:06:00;14.20;99.90
46117;DHT22;32591;48.102;11.772;2022-10-22T09:08:29;14.30;99.90
46117;DHT22;32591;48.102;11.772;2022-10-22T09:11:01;14.30;99.90
46117;DHT22;32591;48.102;11.772;2022-10-22T09:13:30;14.20;99.90
46117;DHT22;32591;48.102;11.772;2022-10-22T09:16:04;14.30;99.90
46117;DHT22;32591;48.102;11.772;2022-10-22T09:18:44;14.30;99.90
46117;DHT22;32591;48.102;11.772;2022-10-22T09:21:24;14.20;99.90
46117;DHT22;32591;48.102;11.772;2022-10-22T09:24:03;14.20;99.90
46117;DHT22;32591;48.102;11.772;2022-10-22T09:26:33;14.20;99.90
46117;DHT22;32591;48.102;11.772;2022-10-22T09:29:02;14.20;99.90
46117;DHT22;32591;48.102;11.772;2022-10-22T09:31:32;14.30;99.90
46117;DHT22;32591;48.102;11.772;2022-10-22T09:34:00;14.40;99.90
46117;DHT22;32591;48.102;11.772;2022-10-22T09:36:32;14.40;99.90
46117;DHT22;32591;48.102;11.772;2022-10-22T09:39:00;14.50;99.90
46117;DHT22;32591;48.102;11.772;2022-10-22T09:41:28;14.50;99.90
46117;DHT22;32591;48.102;11.772;2022-10-22T09:43:56;14.50;99.90
46117;DHT22;32591;48.102;11.772;2022-10-22T09:46:27;14.50;99.90
46117;DHT22;32591;48.102;11.772;2022-10-22T09:49:04;14.60;99.90
46117;DHT22;32591;48.102;11.772;2022-10-22T09:51:49;14.60;99.90
46117;DHT22;32591;48.102;11.772;2022-10-22T09:54:19;14.60;99.90
46117;DHT22;32591;48.102;11.772;2022-10-22T09:56:55;14.60;99.90
46117;DHT22;32591;48.102;11.772;2022-10-22T09:59:27;14.70;99.90
46117;DHT22;32591;48.102;11.772;2022-10-22T10:02:02;14.80;99.90
46117;DHT22;32591;48.102;11.772;2022-10-22T10:04:35;14.80;99.90
46117;DHT22;32591;48.102;11.772;2022-10-22T10:07:14;14.80;99.90
46117;DHT22;32591;48.102;11.772;2022-10-22T10:09:42;15.10;99.90
46117;DHT22;32591;48.102;11.772;2022-10-22T10:12:20;15.20;99.90
46117;DHT22;32591;48.102;11.772;2022-10-22T10:14:59;15.30;99.90
46117;DHT22;32591;48.102;11.772;2022-10-22T10:17:35;15.30;99.90
46117;DHT22;32591;48.102;11.772;2022-10-22T10:20:23;15.70;99.90
46117;DHT22;32591;48.102;11.772;2022-10-22T10:22:59;16.10;99.90
46117;DHT22;32591;48.102;11.772;2022-10-22T10:25:45;15.80;99.90
46117;DHT22;32591;48.102;11.772;2022-10-22T10:28:27;15.40;99.90
46117;DHT22;32591;48.102;11.772;2022-10-22T10:31:05;15.30;99.90
46117;DHT22;32591;48.102;11.772;2022-10-22T10:33:46;15.30;99.90
46117;DHT22;32591;48.102;11.772;2022-10-22T10:36:26;15.30;99.90
46117;DHT22;32591;48.102;11.772;2022-10-22T10:39:02;15.30;99.90
46117;DHT22;32591;48.102;11.772;2022-10-22T10:41:40;15.30;99.90
46117;DHT22;32591;48.102;11.772;2022-10-22T10:44:26;15.80;99.90
46117;DHT22;32591;48.102;11.772;2022-10-22T10:47:08;15.90;99.90
46117;DHT22;32591;48.102;11.772;2022-10-22T10:49:42;16.00;99.90
46117;DHT22;32591;48.102;11.772;2022-10-22T10:52:19;16.50;99.90
46117;DHT22;32591;48.102;11.772;2022-10-22T10:54:56;16.50;99.90
46117;DHT22;32591;48.102;11.772;2022-10-22T10:57:41;16.30;99.90
46117;DHT22;32591;48.102;11.772;2022-10-22T11:00:14;16.10;99.90
46117;DHT22;32591;48.102;11.772;2022-10-22T11:05:52;16.50;99.90
46117;DHT22;32591;48.102;11.772;2022-10-22T11:08:25;16.90;99.90
46117;DHT22;32591;48.102;11.772;2022-10-22T11:10:55;16.90;99.90
46117;DHT22;32591;48.102;11.772;2022-10-22T11:13:30;16.60;99.90
46117;DHT22;32591;48.102;11.772;2022-10-22T11:16:03;16.30;99.90
46117;DHT22;32591;48.102;11.772;2022-10-22T11:18:38;16.20;99.90
46117;DHT22;32591;48.102;11.772;2022-10-22T11:21:16;16.20;99.90
46117;DHT22;32591;48.102;11.772;2022-10-22T11:23:53;16.20;99.90
46117;DHT22;32591;48.102;11.772;2022-10-22T11:26:33;16.10;99.90
46117;DHT22;32591;48.102;11.772;2022-10-22T11:29:04;16.00;99.90
46117;DHT22;32591;48.102;11.772;2022-10-22T11:31:36;16.00;99.90
46117;DHT22;32591;48.102;11.772;2022-10-22T11:34:09;16.00;99.90
46117;DHT22;32591;48.102;11.772;2022-10-22T11:36:41;16.00;99.90
46117;DHT22;32591;48.102;11.772;2022-10-22T11:39:28;16.20;99.90
46117;DHT22;32591;48.102;11.772;2022-10-22T11:41:57;16.40;99.90
46117;DHT22;32591;48.102;11.772;2022-10-22T11:44:25;16.50;99.90
46117;DHT22;32591;48.102;11.772;2022-10-22T11:46:57;16.50;99.90
46117;DHT22;32591;48.102;11.772;2022-10-22T11:49:27;16.50;99.90
46117;DHT22;32591;48.102;11.772;2022-10-22T11:52:25;16.60;99.90
46117;DHT22;32591;48.102;11.772;2022-10-22T11:54:56;16.70;99.90
46117;DHT22;32591;48.102;11.772;2022-10-22T11:57:27;16.80;99.90
46117;DHT22;32591;48.102;11.772;2022-10-22T11:59:58;17.00;99.90
46117;DHT22;32591;48.102;11.772;2022-10-22T12:02:47;17.10;99.90
46117;DHT22;32591;48.102;11.772;2022-10-22T12:05:35;17.20;99.90
46117;DHT22;32591;48.102;11.772;2022-10-22T12:08:14;17.30;99.90
46117;DHT22;32591;48.102;11.772;2022-10-22T12:11:19;17.40;99.90
46117;DHT22;32591;48.102;11.772;2022-10-22T12:14:02;17.30;99.90
46117;DHT22;32591;48.102;11.772;2022-10-22T12:16:42;17.20;99.90
46117;DHT22;32591;48.102;11.772;2022-10-22T12:19:16;17.20;99.90
46117;DHT22;32591;48.102;11.772;2022-10-22T12:21:47;17.20;99.90
46117;DHT22;32591;48.102;11.772;2022-10-22T12:24:18;17.40;99.90
46117;DHT22;32591;48.102;11.772;2022-10-22T12:26:47;17.40;99.90
46117;DHT22;32591;48.102;11.772;2022-10-22T12:29:18;17.50;99.90
46117;DHT22;32591;48.102;11.772;2022-10-22T12:31:47;17.50;99.90
46117;DHT22;32591;48.102;11.772;2022-10-22T12:34:18;17.50;99.90
46117;DHT22;32591;48.102;11.772;2022-10-22T12:36:48;17.60;99.90
46117;DHT22;32591;48.102;11.772;2022-10-22T12:39:18;17.60;99.90
46117;DHT22;32591;48.102;11.772;2022-10-22T12:41:47;17.60;99.90
46117;DHT22;32591;48.102;11.772;2022-10-22T12:44:16;17.50;99.90
46117;DHT22;32591;48.102;11.772;2022-10-22T12:46:45;17.60;99.90
46117;DHT22;32591;48.102;11.772;2022-10-22T12:49:16;17.60;99.90
46117;DHT22;32591;48.102;11.772;2022-10-22T12:51:46;17.60;99.90
46117;DHT22;32591;48.102;11.772;2022-10-22T12:54:23;17.60;99.90
46117;DHT22;32591;48.102;11.772;2022-10-22T12:56:53;17.50;99.90
46117;DHT22;32591;48.102;11.772;2022-10-22T12:59:23;17.50;99.90
46117;DHT22;32591;48.102;11.772;2022-10-22T13:01:52;17.50;99.90
46117;DHT22;32591;48.102;11.772;2022-10-22T13:04:29;17.50;99.90
46117;DHT22;32591;48.102;11.772;2022-10-22T13:07:19;17.70;99.90
46117;DHT22;32591;48.102;11.772;2022-10-22T13:09:55;17.70;99.90
46117;DHT22;32591;48.102;11.772;2022-10-22T13:12:26;17.60;99.90
46117;DHT22;32591;48.102;11.772;2022-10-22T13:14:54;17.60;99.90
46117;DHT22;32591;48.102;11.772;2022-10-22T13:17:37;17.50;99.90
46117;DHT22;32591;48.102;11.772;2022-10-22T13:20:16;17.40;99.90
46117;DHT22;32591;48.102;11.772;2022-10-22T13:22:54;17.40;99.90
46117;DHT22;32591;48.102;11.772;2022-10-22T13:25:26;17.40;99.90
46117;DHT22;32591;48.102;11.772;2022-10-22T13:27:58;17.50;99.90
46117;DHT22;32591;48.102;11.772;2022-10-22T13:30:30;17.50;99.90
46117;DHT22;32591;48.102;11.772;2022-10-22T13:33:00;17.60;99.90
46117;DHT22;32591;48.102;11.772;2022-10-22T13:35:32;17.80;99.90
46117;DHT22;32591;48.102;11.772;2022-10-22T13:38:00;18.10;99.90
46117;DHT22;32591;48.102;11.772;2022-10-22T13:40:27;18.40;99.90
46117;DHT22;32591;48.102;11.772;2022-10-22T13:42:56;18.40;99.90
46117;DHT22;32591;48.102;11.772;2022-10-22T13:45:23;18.40;99.90
46117;DHT22;32591;48.102;11.772;2022-10-22T13:47:51;18.30;99.90
46117;DHT22;32591;48.102;11.772;2022-10-22T13:50:20;18.20;99.90
46117;DHT22;32591;48.102;11.772;2022-10-22T13:52:49;18.20;99.90
46117;DHT22;32591;48.102;11.772;2022-10-22T13:55:19;18.00;99.90
46117;DHT22;32591;48.102;11.772;2022-10-22T13:57:50;18.00;99.90
46117;DHT22;32591;48.102;11.772;2022-10-22T14:00:20;17.90;99.90
46117;DHT22;32591;48.102;11.772;2022-10-22T14:02:50;17.80;99.90
46117;DHT22;32591;48.102;11.772;2022-10-22T14:05:19;17.80;99.90
46117;DHT22;32591;48.102;11.772;2022-10-22T14:07:47;17.70;99.90
46117;DHT22;32591;48.102;11.772;2022-10-22T14:10:17;17.60;99.90
46117;DHT22;32591;48.102;11.772;2022-10-22T14:12:46;17.60;99.90
46117;DHT22;32591;48.102;11.772;2022-10-22T14:15:15;17.60;99.90
46117;DHT22;32591;48.102;11.772;2022-10-22T14:17:47;17.60;99.90
46117;DHT22;32591;48.102;11.772;2022-10-22T14:20:19;17.50;99.90
46117;DHT22;32591;48.102;11.772;2022-10-22T14:22:49;17.50;99.90
46117;DHT22;32591;48.102;11.772;2022-10-22T14:25:19;17.50;99.90
46117;DHT22;32591;48.102;11.772;2022-10-22T14:27:48;17.50;99.90
46117;DHT22;32591;48.102;11.772;2022-10-22T14:30:16;17.50;99.90
46117;DHT22;32591;48.102;11.772;2022-10-22T14:32:46;17.50;99.90
46117;DHT22;32591;48.102;11.772;2022-10-22T14:35:15;17.50;99.90
46117;DHT22;32591;48.102;11.772;2022-10-22T14:37:44;17.60;99.90
46117;DHT22;32591;48.102;11.772;2022-10-22T14:40:12;17.90;99.90
46117;DHT22;32591;48.102;11.772;2022-10-22T14:42:42;18.00;99.90
46117;DHT22;32591;48.102;11.772;2022-10-22T14:45:15;18.10;99.90
46117;DHT22;32591;48.102;11.772;2022-10-22T14:47:43;18.30;99.90
46117;DHT22;32591;48.102;11.772;2022-10-22T14:50:11;18.40;99.90
46117;DHT22;32591;48.102;11.772;2022-10-22T14:52:39;18.50;99.90
46117;DHT22;32591;48.102;11.772;2022-10-22T14:55:08;18.60;99.90
46117;DHT22;32591;48.102;11.772;2022-10-22T14:57:36;18.70;99.90
46117;DHT22;32591;48.102;11.772;2022-10-22T15:00:06;18.80;99.90
46117;DHT22;32591;48.102;11.772;2022-10-22T15:02:34;18.90;99.90
46117;DHT22;32591;48.102;11.772;2022-10-22T15:05:02;18.90;99.90
46117;DHT22;32591;48.102;11.772;2022-10-22T15:07:30;18.90;99.90
46117;DHT22;32591;48.102;11.772;2022-10-22T15:09:57;18.80;99.90
46117;DHT22;32591;48.102;11.772;2022-10-22T15:12:25;18.80;99.90
46117;DHT22;32591;48.102;11.772;2022-10-22T15:14:52;19.00;99.90
46117;DHT22;32591;48.102;11.772;2022-10-22T15:17:19;19.10;99.90
46117;DHT22;32591;48.102;11.772;2022-10-22T15:19:46;19.20;99.90
46117;DHT22;32591;48.102;11.772;2022-10-22T15:22:13;19.30;99.90
46117;DHT22;32591;48.102;11.772;2022-10-22T15:24:42;19.40;99.90
46117;DHT22;32591;48.102;11.772;2022-10-22T15:27:09;19.50;99.90
46117;DHT22;32591;48.102;11.772;2022-10-22T15:29:38;19.50;99.90
46117;DHT22;32591;48.102;11.772;2022-10-22T15:32:06;19.50;99.90
46117;DHT22;32591;48.102;11.772;2022-10-22T15:34:36;19.60;99.90
46117;DHT22;32591;48.102;11.772;2022-10-22T15:37:06;19.40;99.90
46117;DHT22;32591;48.102;11.772;2022-10-22T15:39:38;19.20;99.90
46117;DHT22;32591;48.102;11.772;2022-10-22T15:42:08;19.20;99.90
46117;DHT22;32591;48.102;11.772;2022-10-22T15:44:35;19.20;99.90